sensor_id;sensor_type;location;lat;lon;timestamp;pressure;altitude;pressure_sealevel;temperature;humidity
66164;BME280;52962;51.088;3.096;2023-02-23T00:01:52;101091.94;;;8.01;100.00
66164;BME280;52962;51.088;3.096;2023-02-23T00:04:21;101092.88;;;8.03;100.00
66164;BME280;52962;51.088;3.096;2023-02-23T00:06:51;101092.03;;;8.04;100.00
66164;BME280;52962;51.088;3.096;2023-02-23T00:09:20;101085.06;;;8.04;100.00
66164;BME280;52962;51.088;3.096;2023-02-23T00:11:55;101096.44;;;8.05;100.00
66164;BME280;52962;51.088;3.096;2023-02-23T00:14:25;101102.69;;;8.08;100.00
66164;BME280;52962;51.088;3.096;2023-02-23T00:16:54;101100.81;;;8.04;100.00
66164;BME280;52962;51.088;3.096;2023-02-23T00:19:23;101096.34;;;8.02;100.00
66164;BME280;52962;51.088;3.096;2023-02-23T00:21:51;101091.94;;;8.01;100.00
66164;BME280;52962;51.088;3.096;2023-02-23T00:24:21;101094.34;;;7.95;100.00
66164;BME280;52962;51.088;3.096;2023-02-23T00:26:52;101096.19;;;7.97;100.00
66164;BME280;52962;51.088;3.096;2023-02-23T00:29:22;101094.47;;;7.98;100.00
66164;BME280;52962;51.088;3.096;2023-02-23T00:31:53;101097.03;;;7.96;100.00
66164;BME280;52962;51.088;3.096;2023-02-23T00:34:22;101092.69;;;7.97;100.00
66164;BME280;52962;51.088;3.096;2023-02-23T00:36:51;101094.41;;;7.96;100.00
66164;BME280;52962;51.088;3.096;2023-02-23T00:39:22;101093.56;;;7.97;100.00
66164;BME280;52962;51.088;3.096;2023-02-23T00:41:55;101098.88;;;7.99;100.00
66164;BME280;52962;51.088;3.096;2023-02-23T00:44:28;101098.13;;;8.03;100.00
66164;BME280;52962;51.088;3.096;2023-02-23T00:46:56;101097.13;;;7.99;100.00
66164;BME280;52962;51.088;3.096;2023-02-23T00:49:25;101099.81;;;8.01;100.00
66164;BME280;52962;51.088;3.096;2023-02-23T00:51:53;101093.78;;;8.03;100.00
66164;BME280;52962;51.088;3.096;2023-02-23T00:54:23;101093.78;;;8.03;100.00
66164;BME280;52962;51.088;3.096;2023-02-23T00:56:51;101092.94;;;8.04;100.00
66164;BME280;52962;51.088;3.096;2023-02-23T00:59:21;101097.28;;;8.04;100.00
66164;BME280;52962;51.088;3.096;2023-02-23T01:01:49;101103.38;;;8.03;100.00
66164;BME280;52962;51.088;3.096;2023-02-23T01:04:20;101105.09;;;8.02;100.00
66164;BME280;52962;51.088;3.096;2023-02-23T01:06:49;101098.03;;;8.00;100.00
66164;BME280;52962;51.088;3.096;2023-02-23T01:09:17;101094.63;;;8.02;100.00
66164;BME280;52962;51.088;3.096;2023-02-23T01:11:55;101089.44;;;8.04;100.00
66164;BME280;52962;51.088;3.096;2023-02-23T01:14:27;101098.13;;;8.03;100.00
66164;BME280;52962;51.088;3.096;2023-02-23T01:16:57;101100.81;;;8.04;100.00
66164;BME280;52962;51.088;3.096;2023-02-23T01:19:25;101094.78;;;8.07;100.00
66164;BME280;52962;51.088;3.096;2023-02-23T01:21:54;101100.91;;;8.07;100.00
66164;BME280;52962;51.088;3.096;2023-02-23T01:24:22;101098.34;;;8.09;100.00
66164;BME280;52962;51.088;3.096;2023-02-23T01:26:50;101099.22;;;8.09;100.00
66164;BME280;52962;51.088;3.096;2023-02-23T01:29:20;101100.13;;;8.10;100.00
66164;BME280;52962;51.088;3.096;2023-02-23T01:31:49;101097.50;;;8.10;100.00
66164;BME280;52962;51.088;3.096;2023-02-23T01:34:19;101095.72;;;8.09;100.00
66164;BME280;52962;51.088;3.096;2023-02-23T01:36:49;101099.13;;;8.06;100.00
66164;BME280;52962;51.088;3.096;2023-02-23T01:39:19;101104.38;;;8.06;100.00
66164;BME280;52962;51.088;3.096;2023-02-23T01:41:47;101106.16;;;8.07;100.00
66164;BME280;52962;51.088;3.096;2023-02-23T01:47:24;101101.59;;;8.02;100.00
66164;BME280;52962;51.088;3.096;2023-02-23T01:49:53;101101.59;;;8.02;100.00
66164;BME280;52962;51.088;3.096;2023-02-23T01:52:22;101098.03;;;8.00;100.00
66164;BME280;52962;51.088;3.096;2023-02-23T01:54:52;101105.94;;;8.01;100.00
66164;BME280;52962;51.088;3.096;2023-02-23T01:57:22;101098.97;;;8.02;100.00
66164;BME280;52962;51.088;3.096;2023-02-23T01:59:53;101103.38;;;8.03;100.00
66164;BME280;52962;51.088;3.096;2023-02-23T02:02:25;101099.81;;;8.01;100.00
66164;BME280;52962;51.088;3.096;2023-02-23T02:05:02;101105.09;;;8.02;100.00
66164;BME280;52962;51.088;3.096;2023-02-23T02:07:35;101102.44;;;8.01;100.00
66164;BME280;52962;51.088;3.096;2023-02-23T02:10:06;101104.94;;;7.98;100.00
66164;BME280;52962;51.088;3.096;2023-02-23T02:13:07;101099.50;;;7.92;100.00
66164;BME280;52962;51.088;3.096;2023-02-23T02:15:57;101103.72;;;7.88;100.00
66164;BME280;52962;51.088;3.096;2023-02-23T02:18:34;101111.66;;;7.90;100.00
66164;BME280;52962;51.088;3.096;2023-02-23T02:21:49;101111.66;;;7.90;100.00
66164;BME280;52962;51.088;3.096;2023-02-23T02:24:47;101106.25;;;7.85;100.00
66164;BME280;52962;51.088;3.096;2023-02-23T02:27:26;101102.84;;;7.87;100.00
66164;BME280;52962;51.088;3.096;2023-02-23T02:30:27;101106.47;;;7.91;100.00
66164;BME280;52962;51.088;3.096;2023-02-23T02:36:54;101108.19;;;7.91;100.00
66164;BME280;52962;51.088;3.096;2023-02-23T02:39:27;101104.84;;;7.95;100.00
66164;BME280;52962;51.088;3.096;2023-02-23T02:42:11;101108.31;;;7.94;100.00
66164;BME280;52962;51.088;3.096;2023-02-23T02:44:50;101102.22;;;7.95;100.00
66164;BME280;52962;51.088;3.096;2023-02-23T02:47:27;101100.44;;;7.94;100.00
66164;BME280;52962;51.088;3.096;2023-02-23T02:50:03;101099.53;;;7.93;100.00
66164;BME280;52962;51.088;3.096;2023-02-23T02:52:38;101090.78;;;7.93;100.00
66164;BME280;52962;51.088;3.096;2023-02-23T02:55:13;101093.47;;;7.94;100.00
66164;BME280;52962;51.088;3.096;2023-02-23T02:57:43;101095.28;;;7.97;100.00
66164;BME280;52962;51.088;3.096;2023-02-23T03:00:16;101098.81;;;7.97;100.00
66164;BME280;52962;51.088;3.096;2023-02-23T03:03:02;101109.34;;;7.99;100.00
66164;BME280;52962;51.088;3.096;2023-02-23T03:05:51;101104.06;;;7.97;100.00
66164;BME280;52962;51.088;3.096;2023-02-23T03:08:48;101110.97;;;7.95;100.00
66164;BME280;52962;51.088;3.096;2023-02-23T03:11:37;101110.03;;;7.93;100.00
66164;BME280;52962;51.088;3.096;2023-02-23T03:14:28;101102.94;;;7.91;100.00
66164;BME280;52962;51.088;3.096;2023-02-23T03:17:23;101109.09;;;7.91;100.00
66164;BME280;52962;51.088;3.096;2023-02-23T03:20:19;101113.44;;;7.91;100.00
66164;BME280;52962;51.088;3.096;2023-02-23T03:23:17;101109.03;;;7.90;100.00
66164;BME280;52962;51.088;3.096;2023-02-23T03:26:08;101108.09;;;7.87;100.00
66164;BME280;52962;51.088;3.096;2023-02-23T03:29:01;101116.78;;;7.86;100.00
66164;BME280;52962;51.088;3.096;2023-02-23T03:31:53;101113.31;;;7.87;100.00
66164;BME280;52962;51.088;3.096;2023-02-23T03:34:50;101109.88;;;7.88;100.00
66164;BME280;52962;51.088;3.096;2023-02-23T03:37:41;101106.41;;;7.90;100.00
66164;BME280;52962;51.088;3.096;2023-02-23T03:40:33;101110.75;;;7.89;100.00
66164;BME280;52962;51.088;3.096;2023-02-23T03:43:25;101109.88;;;7.88;100.00
66164;BME280;52962;51.088;3.096;2023-02-23T03:46:13;101116.00;;;7.89;100.00
66164;BME280;52962;51.088;3.096;2023-02-23T03:49:05;101105.47;;;7.87;100.00
66164;BME280;52962;51.088;3.096;2023-02-23T03:51:56;101115.06;;;7.87;100.00
66164;BME280;52962;51.088;3.096;2023-02-23T03:54:47;101113.28;;;7.86;100.00
66164;BME280;52962;51.088;3.096;2023-02-23T03:57:36;101111.31;;;7.80;100.00
66164;BME280;52962;51.088;3.096;2023-02-23T04:00:28;101118.25;;;7.78;100.00
66164;BME280;52962;51.088;3.096;2023-02-23T04:03:17;101115.72;;;7.81;100.00
66164;BME280;52962;51.088;3.096;2023-02-23T04:06:03;101115.72;;;7.81;100.00
66164;BME280;52962;51.088;3.096;2023-02-23T04:08:53;101114.91;;;7.82;100.00
66164;BME280;52962;51.088;3.096;2023-02-23T04:11:49;101114.91;;;7.82;100.00
66164;BME280;52962;51.088;3.096;2023-02-23T04:14:40;101120.13;;;7.82;100.00
66164;BME280;52962;51.088;3.096;2023-02-23T04:17:12;101124.53;;;7.83;100.00
66164;BME280;52962;51.088;3.096;2023-02-23T04:19:49;101127.16;;;7.83;100.00
66164;BME280;52962;51.088;3.096;2023-02-23T04:22:18;101126.28;;;7.83;100.00
66164;BME280;52962;51.088;3.096;2023-02-23T04:24:45;101127.16;;;7.83;100.00
66164;BME280;52962;51.088;3.096;2023-02-23T04:27:14;101127.28;;;7.86;100.00
66164;BME280;52962;51.088;3.096;2023-02-23T04:29:42;101136.03;;;7.87;100.00
66164;BME280;52962;51.088;3.096;2023-02-23T04:32:12;101142.91;;;7.83;100.00
66164;BME280;52962;51.088;3.096;2023-02-23T04:34:42;101144.69;;;7.84;100.00
66164;BME280;52962;51.088;3.096;2023-02-23T04:37:10;101142.91;;;7.83;100.00
66164;BME280;52962;51.088;3.096;2023-02-23T04:39:38;101147.25;;;7.83;100.00
66164;BME280;52962;51.088;3.096;2023-02-23T04:42:06;101146.34;;;7.82;100.00
66164;BME280;52962;51.088;3.096;2023-02-23T04:44:34;101152.50;;;7.83;100.00
66164;BME280;52962;51.088;3.096;2023-02-23T04:47:03;101156.06;;;7.85;100.00
66164;BME280;52962;51.088;3.096;2023-02-23T04:49:32;101151.59;;;7.82;100.00
66164;BME280;52962;51.088;3.096;2023-02-23T04:52:01;101149.88;;;7.83;100.00
66164;BME280;52962;51.088;3.096;2023-02-23T04:54:29;101155.94;;;7.82;100.00
66164;BME280;52962;51.088;3.096;2023-02-23T04:56:57;101152.50;;;7.83;100.00
66164;BME280;52962;51.088;3.096;2023-02-23T04:59:25;101153.38;;;7.83;100.00
66164;BME280;52962;51.088;3.096;2023-02-23T05:01:54;101157.69;;;7.81;100.00
66164;BME280;52962;51.088;3.096;2023-02-23T05:04:21;101161.97;;;7.79;100.00
66164;BME280;52962;51.088;3.096;2023-02-23T05:06:51;101159.34;;;7.79;100.00
66164;BME280;52962;51.088;3.096;2023-02-23T05:09:20;101158.56;;;7.82;100.00
66164;BME280;52962;51.088;3.096;2023-02-23T05:11:48;101160.31;;;7.81;100.00
66164;BME280;52962;51.088;3.096;2023-02-23T05:14:16;101162.97;;;7.83;100.00
66164;BME280;52962;51.088;3.096;2023-02-23T05:16:44;101156.00;;;7.83;100.00
66164;BME280;52962;51.088;3.096;2023-02-23T05:19:12;101161.25;;;7.83;100.00
66164;BME280;52962;51.088;3.096;2023-02-23T05:21:40;101157.69;;;7.81;100.00
66164;BME280;52962;51.088;3.096;2023-02-23T05:24:10;101163.66;;;7.77;100.00
66164;BME280;52962;51.088;3.096;2023-02-23T05:26:38;101158.34;;;7.76;100.00
66164;BME280;52962;51.088;3.096;2023-02-23T05:29:06;101162.81;;;7.78;100.00
66164;BME280;52962;51.088;3.096;2023-02-23T05:31:34;101169.91;;;7.81;100.00
66164;BME280;52962;51.088;3.096;2023-02-23T05:34:02;101172.47;;;7.79;100.00
66164;BME280;52962;51.088;3.096;2023-02-23T05:36:31;101171.50;;;7.77;100.00
66164;BME280;52962;51.088;3.096;2023-02-23T05:38:59;101177.66;;;7.78;100.00
66164;BME280;52962;51.088;3.096;2023-02-23T05:41:28;101177.59;;;7.76;100.00
66164;BME280;52962;51.088;3.096;2023-02-23T05:43:56;101175.81;;;7.75;100.00
66164;BME280;52962;51.088;3.096;2023-02-23T05:46:26;101183.69;;;7.75;100.00
66164;BME280;52962;51.088;3.096;2023-02-23T05:48:56;101188.97;;;7.77;100.00
66164;BME280;52962;51.088;3.096;2023-02-23T05:51:25;101189.94;;;7.79;100.00
66164;BME280;52962;51.088;3.096;2023-02-23T05:53:53;101197.78;;;7.79;100.00
66164;BME280;52962;51.088;3.096;2023-02-23T05:56:21;101203.81;;;7.76;100.00
66164;BME280;52962;51.088;3.096;2023-02-23T05:58:51;101202.03;;;7.75;100.00
66164;BME280;52962;51.088;3.096;2023-02-23T06:01:20;101200.34;;;7.77;100.00
66164;BME280;52962;51.088;3.096;2023-02-23T06:03:48;101203.94;;;7.79;100.00
66164;BME280;52962;51.088;3.096;2023-02-23T06:06:17;101208.34;;;7.80;100.00
66164;BME280;52962;51.088;3.096;2023-02-23T06:08:45;101202.25;;;7.81;100.00
66164;BME280;52962;51.088;3.096;2023-02-23T06:11:13;101202.25;;;7.81;100.00
66164;BME280;52962;51.088;3.096;2023-02-23T06:13:42;101208.44;;;7.83;100.00
66164;BME280;52962;51.088;3.096;2023-02-23T06:16:11;101204.03;;;7.82;100.00
66164;BME280;52962;51.088;3.096;2023-02-23T06:18:43;101210.13;;;7.81;100.00
66164;BME280;52962;51.088;3.096;2023-02-23T06:21:13;101217.16;;;7.82;100.00
66164;BME280;52962;51.088;3.096;2023-02-23T06:23:41;101212.75;;;7.81;100.00
66164;BME280;52962;51.088;3.096;2023-02-23T06:26:09;101222.44;;;7.84;100.00
66164;BME280;52962;51.088;3.096;2023-02-23T06:28:37;101217.22;;;7.84;100.00
66164;BME280;52962;51.088;3.096;2023-02-23T06:31:05;101224.25;;;7.85;100.00
66164;BME280;52962;51.088;3.096;2023-02-23T06:33:35;101230.38;;;7.85;100.00
66164;BME280;52962;51.088;3.096;2023-02-23T06:36:04;101233.94;;;7.87;100.00
66164;BME280;52962;51.088;3.096;2023-02-23T06:38:32;101232.22;;;7.88;100.00
66164;BME280;52962;51.088;3.096;2023-02-23T06:41:05;101234.84;;;7.88;100.00
66164;BME280;52962;51.088;3.096;2023-02-23T06:43:34;101238.25;;;7.85;100.00
66164;BME280;52962;51.088;3.096;2023-02-23T06:46:02;101249.69;;;7.87;100.00
66164;BME280;52962;51.088;3.096;2023-02-23T06:48:31;101247.06;;;7.87;100.00
66164;BME280;52962;51.088;3.096;2023-02-23T06:51:02;101249.69;;;7.87;100.00
66164;BME280;52962;51.088;3.096;2023-02-23T06:53:30;101261.97;;;7.88;100.00
66164;BME280;52962;51.088;3.096;2023-02-23T06:55:59;101255.81;;;7.88;100.00
66164;BME280;52962;51.088;3.096;2023-02-23T06:58:27;101262.78;;;7.87;100.00
66164;BME280;52962;51.088;3.096;2023-02-23T07:00:55;101262.78;;;7.87;100.00
66164;BME280;52962;51.088;3.096;2023-02-23T07:03:24;101263.63;;;7.86;100.00
66164;BME280;52962;51.088;3.096;2023-02-23T07:05:52;101275.91;;;7.87;100.00
66164;BME280;52962;51.088;3.096;2023-02-23T07:08:22;101272.44;;;7.88;100.00
66164;BME280;52962;51.088;3.096;2023-02-23T07:10:50;101274.34;;;7.93;100.00
66164;BME280;52962;51.088;3.096;2023-02-23T07:13:18;101289.31;;;7.95;100.00
66164;BME280;52962;51.088;3.096;2023-02-23T07:15:47;101281.50;;;7.97;100.00
66164;BME280;52962;51.088;3.096;2023-02-23T07:18:16;101284.13;;;7.97;100.00
66164;BME280;52962;51.088;3.096;2023-02-23T07:20:44;101284.25;;;8.00;100.00
66164;BME280;52962;51.088;3.096;2023-02-23T07:23:13;101295.63;;;8.00;100.00
66164;BME280;52962;51.088;3.096;2023-02-23T07:25:42;101303.38;;;7.97;100.00
66164;BME280;52962;51.088;3.096;2023-02-23T07:28:11;101306.84;;;7.96;100.00
66164;BME280;52962;51.088;3.096;2023-02-23T07:30:39;101312.13;;;7.98;100.00
66164;BME280;52962;51.088;3.096;2023-02-23T07:33:08;101320.13;;;8.01;100.00
66164;BME280;52962;51.088;3.096;2023-02-23T07:35:36;101314.94;;;8.02;100.00
66164;BME280;52962;51.088;3.096;2023-02-23T07:38:04;101315.88;;;8.04;100.00
66164;BME280;52962;51.088;3.096;2023-02-23T07:40:33;101310.69;;;8.06;100.00
66164;BME280;52962;51.088;3.096;2023-02-23T07:43:02;101317.78;;;8.08;100.00
66164;BME280;52962;51.088;3.096;2023-02-23T07:45:30;101326.63;;;8.10;100.00
66164;BME280;52962;51.088;3.096;2023-02-23T07:47:58;101328.41;;;8.11;100.00
66164;BME280;52962;51.088;3.096;2023-02-23T07:50:26;101326.78;;;8.15;100.00
66164;BME280;52962;51.088;3.096;2023-02-23T07:52:55;101324.28;;;8.18;100.00
66164;BME280;52962;51.088;3.096;2023-02-23T07:55:23;101326.13;;;8.20;100.00
66164;BME280;52962;51.088;3.096;2023-02-23T07:57:51;101335.00;;;8.24;100.00
66164;BME280;52962;51.088;3.096;2023-02-23T08:00:21;101332.44;;;8.26;100.00
66164;BME280;52962;51.088;3.096;2023-02-23T08:02:50;101340.38;;;8.27;100.00
66164;BME280;52962;51.088;3.096;2023-02-23T08:05:19;101337.78;;;8.29;100.00
66164;BME280;52962;51.088;3.096;2023-02-23T08:07:48;101341.41;;;8.32;100.00
66164;BME280;52962;51.088;3.096;2023-02-23T08:10:17;101346.84;;;8.37;100.00
66164;BME280;52962;51.088;3.096;2023-02-23T08:12:44;101343.38;;;8.38;100.00
66164;BME280;52962;51.088;3.096;2023-02-23T08:15:13;101342.63;;;8.40;100.00
66164;BME280;52962;51.088;3.096;2023-02-23T08:17:43;101350.53;;;8.42;100.00
66164;BME280;52962;51.088;3.096;2023-02-23T08:20:11;101364.56;;;8.42;100.00
66164;BME280;52962;51.088;3.096;2023-02-23T08:22:39;101356.69;;;8.42;100.00
66164;BME280;52962;51.088;3.096;2023-02-23T08:25:16;101361.16;;;8.45;100.00
66164;BME280;52962;51.088;3.096;2023-02-23T08:27:45;101371.72;;;8.46;100.00
66164;BME280;52962;51.088;3.096;2023-02-23T08:30:14;101375.22;;;8.47;100.00
66164;BME280;52962;51.088;3.096;2023-02-23T08:32:44;101366.47;;;8.46;100.00
66164;BME280;52962;51.088;3.096;2023-02-23T08:35:12;101364.72;;;8.47;100.00
66164;BME280;52962;51.088;3.096;2023-02-23T08:37:40;101367.28;;;8.45;100.00
66164;BME280;52962;51.088;3.096;2023-02-23T08:40:10;101371.66;;;8.45;100.00
66164;BME280;52962;51.088;3.096;2023-02-23T08:42:42;101376.84;;;8.43;100.00
66164;BME280;52962;51.088;3.096;2023-02-23T08:45:10;101379.47;;;8.43;100.00
66164;BME280;52962;51.088;3.096;2023-02-23T08:47:38;101383.03;;;8.45;100.00
66164;BME280;52962;51.088;3.096;2023-02-23T08:50:08;101378.69;;;8.46;100.00
66164;BME280;52962;51.088;3.096;2023-02-23T08:52:37;101378.91;;;8.52;100.00
66164;BME280;52962;51.088;3.096;2023-02-23T08:55:07;101375.69;;;8.59;100.00
66164;BME280;52962;51.088;3.096;2023-02-23T08:57:36;101383.72;;;8.64;100.00
66164;BME280;52962;51.088;3.096;2023-02-23T09:00:06;101382.00;;;8.64;100.00
66164;BME280;52962;51.088;3.096;2023-02-23T09:02:40;101385.56;;;8.66;100.00
66164;BME280;52962;51.088;3.096;2023-02-23T09:05:10;101387.31;;;8.66;100.00
66164;BME280;52962;51.088;3.096;2023-02-23T09:07:39;101389.75;;;8.61;100.00
66164;BME280;52962;51.088;3.096;2023-02-23T09:10:12;101388.81;;;8.59;100.00
66164;BME280;52962;51.088;3.096;2023-02-23T09:12:40;101389.72;;;8.60;100.00
66164;BME280;52962;51.088;3.096;2023-02-23T09:15:09;101386.13;;;8.58;100.00
66164;BME280;52962;51.088;3.096;2023-02-23T09:17:38;101401.03;;;8.59;100.00
66164;BME280;52962;51.088;3.096;2023-02-23T09:20:11;101399.38;;;8.61;100.00
66164;BME280;52962;51.088;3.096;2023-02-23T09:22:42;101403.06;;;8.66;100.00
66164;BME280;52962;51.088;3.096;2023-02-23T09:25:15;101404.84;;;8.67;100.00
66164;BME280;52962;51.088;3.096;2023-02-23T09:27:44;101406.63;;;8.68;100.00
66164;BME280;52962;51.088;3.096;2023-02-23T09:30:13;101413.63;;;8.67;100.00
66164;BME280;52962;51.088;3.096;2023-02-23T09:32:43;101416.19;;;8.66;100.00
66164;BME280;52962;51.088;3.096;2023-02-23T09:35:13;101425.06;;;8.69;100.00
66164;BME280;52962;51.088;3.096;2023-02-23T09:37:43;101429.78;;;8.78;100.00
66164;BME280;52962;51.088;3.096;2023-02-23T09:40:14;101425.63;;;8.84;100.00
66164;BME280;52962;51.088;3.096;2023-02-23T09:42:45;101430.22;;;8.90;100.00
66164;BME280;52962;51.088;3.096;2023-02-23T09:45:22;101429.31;;;8.90;100.00
66164;BME280;52962;51.088;3.096;2023-02-23T09:48:08;101433.84;;;8.94;100.00
66164;BME280;52962;51.088;3.096;2023-02-23T09:50:42;101444.25;;;8.91;100.00
66164;BME280;52962;51.088;3.096;2023-02-23T09:53:20;101439.00;;;8.91;100.00
66164;BME280;52962;51.088;3.096;2023-02-23T09:55:52;101442.19;;;8.82;100.00
66164;BME280;52962;51.088;3.096;2023-02-23T09:58:23;101446.81;;;8.89;100.00
66164;BME280;52962;51.088;3.096;2023-02-23T10:01:04;101436.31;;;8.89;100.00
66164;BME280;52962;51.088;3.096;2023-02-23T10:03:38;101434.03;;;8.98;100.00
66164;BME280;52962;51.088;3.096;2023-02-23T10:06:11;101441.97;;;9.00;100.00
66164;BME280;52962;51.088;3.096;2023-02-23T10:08:48;101437.59;;;9.00;100.00
66164;BME280;52962;51.088;3.096;2023-02-23T10:11:24;101444.84;;;9.07;100.00
66164;BME280;52962;51.088;3.096;2023-02-23T10:14:00;101445.81;;;9.09;100.00
66164;BME280;52962;51.088;3.096;2023-02-23T10:16:41;101445.66;;;9.05;100.00
66164;BME280;52962;51.088;3.096;2023-02-23T10:19:18;101443.28;;;9.12;100.00
66164;BME280;52962;51.088;3.096;2023-02-23T10:21:55;101447.72;;;9.13;100.00
66164;BME280;52962;51.088;3.096;2023-02-23T10:24:26;101443.69;;;9.23;100.00
66164;BME280;52962;51.088;3.096;2023-02-23T10:26:59;101446.19;;;9.45;100.00
66164;BME280;52962;51.088;3.096;2023-02-23T10:29:34;101448.44;;;9.60;100.00
66164;BME280;52962;51.088;3.096;2023-02-23T10:32:06;101446.16;;;9.71;100.00
66164;BME280;52962;51.088;3.096;2023-02-23T10:34:40;101449.00;;;9.77;100.00
66164;BME280;52962;51.088;3.096;2023-02-23T10:37:10;101453.63;;;9.84;100.00
66164;BME280;52962;51.088;3.096;2023-02-23T10:39:40;101452.13;;;9.92;100.00
66164;BME280;52962;51.088;3.096;2023-02-23T10:42:13;101456.41;;;9.89;100.00
66164;BME280;52962;51.088;3.096;2023-02-23T10:44:43;101458.16;;;9.88;100.00
66164;BME280;52962;51.088;3.096;2023-02-23T10:47:13;101464.00;;;9.79;100.00
66164;BME280;52962;51.088;3.096;2023-02-23T10:49:45;101461.69;;;9.63;100.00
66164;BME280;52962;51.088;3.096;2023-02-23T10:52:19;101476.72;;;9.67;100.00
66164;BME280;52962;51.088;3.096;2023-02-23T10:54:49;101473.00;;;9.61;100.00
66164;BME280;52962;51.088;3.096;2023-02-23T10:57:20;101475.72;;;9.64;100.00
66164;BME280;52962;51.088;3.096;2023-02-23T11:02:43;101474.72;;;9.60;100.00
66164;BME280;52962;51.088;3.096;2023-02-23T11:05:34;101476.41;;;9.58;100.00
66164;BME280;52962;51.088;3.096;2023-02-23T11:08:18;101478.16;;;9.58;100.00
66164;BME280;52962;51.088;3.096;2023-02-23T11:11:24;101470.00;;;9.50;100.00
66164;BME280;52962;51.088;3.096;2023-02-23T11:13:55;101473.47;;;9.49;100.00
66164;BME280;52962;51.088;3.096;2023-02-23T11:16:25;101474.88;;;9.39;100.00
66164;BME280;52962;51.088;3.096;2023-02-23T11:18:58;101465.81;;;9.30;100.00
66164;BME280;52962;51.088;3.096;2023-02-23T11:21:28;101472.91;;;9.32;100.00
66164;BME280;52962;51.088;3.096;2023-02-23T11:24:09;101467.66;;;9.32;100.00
66164;BME280;52962;51.088;3.096;2023-02-23T11:26:41;101477.47;;;9.38;100.00
66164;BME280;52962;51.088;3.096;2023-02-23T11:29:24;101481.88;;;9.39;100.00
66164;BME280;52962;51.088;3.096;2023-02-23T11:31:55;101473.25;;;9.43;100.00
66164;BME280;52962;51.088;3.096;2023-02-23T11:34:28;101474.31;;;9.48;100.00
66164;BME280;52962;51.088;3.096;2023-02-23T11:36:59;101470.63;;;9.43;100.00
66164;BME280;52962;51.088;3.096;2023-02-23T11:39:29;101469.16;;;9.51;100.00
66164;BME280;52962;51.088;3.096;2023-02-23T11:42:05;101472.63;;;9.50;100.00
66164;BME280;52962;51.088;3.096;2023-02-23T11:44:40;101472.41;;;9.44;100.00
66164;BME280;52962;51.088;3.096;2023-02-23T11:47:14;101467.06;;;9.41;100.00
66164;BME280;52962;51.088;3.096;2023-02-23T11:49:45;101474.00;;;9.39;100.00
66164;BME280;52962;51.088;3.096;2023-02-23T11:52:17;101475.88;;;9.43;100.00
66164;BME280;52962;51.088;3.096;2023-02-23T11:54:52;101473.03;;;9.37;100.00
66164;BME280;52962;51.088;3.096;2023-02-23T11:57:23;101465.06;;;9.34;100.00
66164;BME280;52962;51.088;3.096;2023-02-23T11:59:52;101452.88;;;9.36;100.00
66164;BME280;52962;51.088;3.096;2023-02-23T12:02:22;101463.47;;;9.39;100.00
66164;BME280;52962;51.088;3.096;2023-02-23T12:04:59;101447.44;;;9.57;100.00
66164;BME280;52962;51.088;3.096;2023-02-23T12:07:35;101451.06;;;9.60;100.00
66164;BME280;52962;51.088;3.096;2023-02-23T12:10:17;101451.06;;;9.60;100.00
66164;BME280;52962;51.088;3.096;2023-02-23T12:12:51;101462.00;;;9.47;100.00
66164;BME280;52962;51.088;3.096;2023-02-23T12:15:33;101464.16;;;9.59;100.00
66164;BME280;52962;51.088;3.096;2023-02-23T12:18:09;101459.06;;;9.63;100.00
66164;BME280;52962;51.088;3.096;2023-02-23T12:20:41;101456.22;;;9.57;100.00
66164;BME280;52962;51.088;3.096;2023-02-23T12:23:16;101457.84;;;9.54;100.00
66164;BME280;52962;51.088;3.096;2023-02-23T12:25:49;101451.81;;;9.56;100.00
66164;BME280;52962;51.088;3.096;2023-02-23T12:28:24;101449.59;;;9.68;100.00
66164;BME280;52962;51.088;3.096;2023-02-23T12:30:57;101449.78;;;9.74;100.00
66164;BME280;52962;51.088;3.096;2023-02-23T12:33:30;101458.44;;;9.70;100.00
66164;BME280;52962;51.088;3.096;2023-02-23T12:36:03;101458.78;;;9.56;100.00
66164;BME280;52962;51.088;3.096;2023-02-23T12:38:47;101461.63;;;9.62;100.00
66164;BME280;52962;51.088;3.096;2023-02-23T12:41:23;101473.06;;;9.62;100.00
66164;BME280;52962;51.088;3.096;2023-02-23T12:43:56;101476.31;;;9.55;100.00
66164;BME280;52962;51.088;3.096;2023-02-23T12:46:30;101466.91;;;9.62;100.00
66164;BME280;52962;51.088;3.096;2023-02-23T12:49:04;101459.56;;;9.78;100.00
66164;BME280;52962;51.088;3.096;2023-02-23T12:51:37;101467.09;;;9.93;100.00
66164;BME280;52962;51.088;3.096;2023-02-23T12:54:08;101472.50;;;9.98;100.00
66164;BME280;52962;51.088;3.096;2023-02-23T12:56:49;101461.56;;;9.86;100.00
66164;BME280;52962;51.088;3.096;2023-02-23T13:02:13;101456.06;;;10.05;100.00
66164;BME280;52962;51.088;3.096;2023-02-23T13:05:11;101462.56;;;10.16;100.00
66164;BME280;52962;51.088;3.096;2023-02-23T13:07:47;101466.38;;;10.24;100.00
66164;BME280;52962;51.088;3.096;2023-02-23T13:10:31;101455.97;;;10.29;100.00
66164;BME280;52962;51.088;3.096;2023-02-23T13:13:15;101452.66;;;10.34;100.00
66164;BME280;52962;51.088;3.096;2023-02-23T13:15:54;101450.84;;;10.33;100.00
66164;BME280;52962;51.088;3.096;2023-02-23T13:18:28;101453.31;;;10.27;100.00
66164;BME280;52962;51.088;3.096;2023-02-23T13:21:04;101450.41;;;10.48;100.00
66164;BME280;52962;51.088;3.096;2023-02-23T13:23:38;101449.69;;;10.54;100.00
66164;BME280;52962;51.088;3.096;2023-02-23T13:26:18;101445.03;;;10.45;100.00
66164;BME280;52962;51.088;3.096;2023-02-23T13:28:57;101446.59;;;10.37;100.00
66164;BME280;52962;51.088;3.096;2023-02-23T13:31:30;101435.41;;;10.45;100.00
66164;BME280;52962;51.088;3.096;2023-02-23T13:34:01;101435.41;;;10.45;100.00
66164;BME280;52962;51.088;3.096;2023-02-23T13:36:32;101445.69;;;10.66;100.00